sensor_id;sensor_type;location;lat;lon;timestamp;P1;durP1;ratioP1;P2;durP2;ratioP2
11414;SDS011;5763;42.714;23.244;2023-11-21T00:01:06;3.78;;;1.98;;
11414;SDS011;5763;42.714;23.244;2023-11-21T00:03:34;4.47;;;2.90;;
11414;SDS011;5763;42.714;23.244;2023-11-21T00:06:01;6.22;;;2.72;;
11414;SDS011;5763;42.714;23.244;2023-11-21T00:08:28;4.80;;;2.88;;
11414;SDS011;5763;42.714;23.244;2023-11-21T00:10:55;5.13;;;2.72;;
11414;SDS011;5763;42.714;23.244;2023-11-21T00:13:22;5.25;;;2.53;;
11414;SDS011;5763;42.714;23.244;2023-11-21T00:15:50;4.72;;;2.60;;
11414;SDS011;5763;42.714;23.244;2023-11-21T00:18:17;4.22;;;2.92;;
11414;SDS011;5763;42.714;23.244;2023-11-21T00:20:44;2.60;;;2.40;;
11414;SDS011;5763;42.714;23.244;2023-11-21T00:23:11;2.92;;;2.15;;
11414;SDS011;5763;42.714;23.244;2023-11-21T00:25:38;3.65;;;1.88;;
11414;SDS011;5763;42.714;23.244;2023-11-21T00:28:05;3.47;;;2.53;;
11414;SDS011;5763;42.714;23.244;2023-11-21T00:30:32;3.25;;;1.70;;
11414;SDS011;5763;42.714;23.244;2023-11-21T00:33:00;2.78;;;2.10;;
11414;SDS011;5763;42.714;23.244;2023-11-21T00:35:27;3.97;;;2.55;;
11414;SDS011;5763;42.714;23.244;2023-11-21T00:37:54;2.80;;;2.22;;
11414;SDS011;5763;42.714;23.244;2023-11-21T00:40:21;2.75;;;2.05;;
11414;SDS011;5763;42.714;23.244;2023-11-21T00:42:48;2.42;;;1.58;;
11414;SDS011;5763;42.714;23.244;2023-11-21T00:45:15;3.17;;;2.20;;
11414;SDS011;5763;42.714;23.244;2023-11-21T00:47:42;1.90;;;1.42;;
11414;SDS011;5763;42.714;23.244;2023-11-21T00:50:10;1.65;;;1.45;;
11414;SDS011;5763;42.714;23.244;2023-11-21T00:52:37;3.53;;;1.52;;
11414;SDS011;5763;42.714;23.244;2023-11-21T00:55:04;2.88;;;1.58;;
11414;SDS011;5763;42.714;23.244;2023-11-21T00:57:32;1.60;;;1.00;;
11414;SDS011;5763;42.714;23.244;2023-11-21T00:59:59;1.45;;;1.25;;
11414;SDS011;5763;42.714;23.244;2023-11-21T01:02:26;1.10;;;0.90;;
11414;SDS011;5763;42.714;23.244;2023-11-21T01:04:54;1.55;;;1.45;;
11414;SDS011;5763;42.714;23.244;2023-11-21T01:07:22;1.77;;;1.25;;
11414;SDS011;5763;42.714;23.244;2023-11-21T01:09:49;1.13;;;0.98;;
11414;SDS011;5763;42.714;23.244;2023-11-21T01:12:16;3.58;;;1.38;;
11414;SDS011;5763;42.714;23.244;2023-11-21T01:14:44;1.50;;;0.90;;
11414;SDS011;5763;42.714;23.244;2023-11-21T01:17:11;1.73;;;1.20;;
11414;SDS011;5763;42.714;23.244;2023-11-21T01:19:37;2.67;;;1.25;;
11414;SDS011;5763;42.714;23.244;2023-11-21T01:22:04;1.50;;;1.20;;
11414;SDS011;5763;42.714;23.244;2023-11-21T01:24:32;1.10;;;0.98;;
11414;SDS011;5763;42.714;23.244;2023-11-21T01:26:59;2.30;;;1.20;;
11414;SDS011;5763;42.714;23.244;2023-11-21T01:29:26;1.10;;;0.80;;
11414;SDS011;5763;42.714;23.244;2023-11-21T01:31:53;1.55;;;1.45;;
11414;SDS011;5763;42.714;23.244;2023-11-21T01:34:20;0.80;;;0.80;;
11414;SDS011;5763;42.714;23.244;2023-11-21T01:36:47;2.25;;;1.70;;
11414;SDS011;5763;42.714;23.244;2023-11-21T01:39:13;2.97;;;1.55;;
11414;SDS011;5763;42.714;23.244;2023-11-21T01:41:42;1.75;;;1.00;;
11414;SDS011;5763;42.714;23.244;2023-11-21T01:44:10;1.30;;;1.20;;
11414;SDS011;5763;42.714;23.244;2023-11-21T01:46:38;0.98;;;0.95;;
11414;SDS011;5763;42.714;23.244;2023-11-21T01:49:06;1.63;;;0.82;;
11414;SDS011;5763;42.714;23.244;2023-11-21T01:51:34;1.17;;;1.05;;
11414;SDS011;5763;42.714;23.244;2023-11-21T01:54:03;2.40;;;0.90;;
11414;SDS011;5763;42.714;23.244;2023-11-21T01:56:30;2.92;;;1.30;;
11414;SDS011;5763;42.714;23.244;2023-11-21T01:58:59;1.90;;;1.08;;
11414;SDS011;5763;42.714;23.244;2023-11-21T02:01:25;2.33;;;0.90;;
11414;SDS011;5763;42.714;23.244;2023-11-21T02:03:52;1.15;;;1.02;;
11414;SDS011;5763;42.714;23.244;2023-11-21T02:06:20;5.13;;;1.48;;
11414;SDS011;5763;42.714;23.244;2023-11-21T02:08:49;1.63;;;1.42;;
11414;SDS011;5763;42.714;23.244;2023-11-21T02:11:16;1.48;;;1.38;;
11414;SDS011;5763;42.714;23.244;2023-11-21T02:13:44;1.70;;;1.40;;
11414;SDS011;5763;42.714;23.244;2023-11-21T02:16:13;1.75;;;1.20;;
11414;SDS011;5763;42.714;23.244;2023-11-21T02:18:40;4.82;;;1.85;;
11414;SDS011;5763;42.714;23.244;2023-11-21T02:21:07;1.60;;;1.42;;
11414;SDS011;5763;42.714;23.244;2023-11-21T02:23:36;1.52;;;0.95;;
11414;SDS011;5763;42.714;23.244;2023-11-21T02:26:07;2.15;;;0.90;;
11414;SDS011;5763;42.714;23.244;2023-11-21T02:28:35;0.88;;;0.82;;
11414;SDS011;5763;42.714;23.244;2023-11-21T02:31:01;1.10;;;1.02;;
11414;SDS011;5763;42.714;23.244;2023-11-21T02:33:29;1.85;;;1.35;;
11414;SDS011;5763;42.714;23.244;2023-11-21T02:35:59;1.40;;;0.88;;
11414;SDS011;5763;42.714;23.244;2023-11-21T02:38:26;1.30;;;1.20;;
11414;SDS011;5763;42.714;23.244;2023-11-21T02:40:54;1.08;;;0.98;;
11414;SDS011;5763;42.714;23.244;2023-11-21T02:43:22;1.30;;;1.02;;
11414;SDS011;5763;42.714;23.244;2023-11-21T02:45:49;1.45;;;1.23;;
11414;SDS011;5763;42.714;23.244;2023-11-21T02:48:15;1.95;;;1.38;;
11414;SDS011;5763;42.714;23.244;2023-11-21T02:50:42;1.40;;;1.15;;
11414;SDS011;5763;42.714;23.244;2023-11-21T02:53:09;1.15;;;0.90;;
11414;SDS011;5763;42.714;23.244;2023-11-21T02:55:37;2.35;;;1.33;;
11414;SDS011;5763;42.714;23.244;2023-11-21T02:58:06;2.00;;;1.25;;
11414;SDS011;5763;42.714;23.244;2023-11-21T03:00:32;1.50;;;1.13;;
11414;SDS011;5763;42.714;23.244;2023-11-21T03:02:59;1.45;;;1.35;;
11414;SDS011;5763;42.714;23.244;2023-11-21T03:05:26;1.30;;;1.10;;
11414;SDS011;5763;42.714;23.244;2023-11-21T03:07:54;0.60;;;0.60;;
11414;SDS011;5763;42.714;23.244;2023-11-21T03:10:21;2.72;;;1.10;;
11414;SDS011;5763;42.714;23.244;2023-11-21T03:12:48;0.70;;;0.60;;
11414;SDS011;5763;42.714;23.244;2023-11-21T03:15:16;0.70;;;0.70;;
11414;SDS011;5763;42.714;23.244;2023-11-21T03:17:43;1.30;;;1.23;;
11414;SDS011;5763;42.714;23.244;2023-11-21T03:20:10;1.45;;;0.95;;
11414;SDS011;5763;42.714;23.244;2023-11-21T03:22:39;1.88;;;1.27;;
11414;SDS011;5763;42.714;23.244;2023-11-21T03:25:06;0.65;;;0.50;;
11414;SDS011;5763;42.714;23.244;2023-11-21T03:27:35;3.15;;;0.68;;
11414;SDS011;5763;42.714;23.244;2023-11-21T03:30:04;0.80;;;0.80;;
11414;SDS011;5763;42.714;23.244;2023-11-21T03:32:34;1.73;;;1.25;;
11414;SDS011;5763;42.714;23.244;2023-11-21T03:35:01;2.83;;;1.13;;
11414;SDS011;5763;42.714;23.244;2023-11-21T03:37:28;2.78;;;1.02;;
11414;SDS011;5763;42.714;23.244;2023-11-21T03:39:56;1.52;;;1.20;;
11414;SDS011;5763;42.714;23.244;2023-11-21T03:42:23;4.45;;;1.63;;
11414;SDS011;5763;42.714;23.244;2023-11-21T03:44:50;2.00;;;0.70;;
11414;SDS011;5763;42.714;23.244;2023-11-21T03:47:17;2.08;;;1.05;;
11414;SDS011;5763;42.714;23.244;2023-11-21T03:49:46;0.88;;;0.82;;
11414;SDS011;5763;42.714;23.244;2023-11-21T03:52:13;1.60;;;1.10;;
11414;SDS011;5763;42.714;23.244;2023-11-21T03:54:40;0.88;;;0.88;;
11414;SDS011;5763;42.714;23.244;2023-11-21T03:57:08;0.70;;;0.50;;
11414;SDS011;5763;42.714;23.244;2023-11-21T03:59:36;2.08;;;1.00;;
11414;SDS011;5763;42.714;23.244;2023-11-21T04:02:03;1.05;;;0.85;;
11414;SDS011;5763;42.714;23.244;2023-11-21T04:04:30;0.65;;;0.65;;
11414;SDS011;5763;42.714;23.244;2023-11-21T04:06:58;2.45;;;1.13;;
11414;SDS011;5763;42.714;23.244;2023-11-21T04:09:25;0.80;;;0.77;;
11414;SDS011;5763;42.714;23.244;2023-11-21T04:11:53;1.80;;;1.27;;
11414;SDS011;5763;42.714;23.244;2023-11-21T04:14:21;1.60;;;0.93;;
11414;SDS011;5763;42.714;23.244;2023-11-21T04:16:48;1.48;;;0.90;;
11414;SDS011;5763;42.714;23.244;2023-11-21T04:19:15;3.10;;;1.35;;
11414;SDS011;5763;42.714;23.244;2023-11-21T04:21:42;1.10;;;1.00;;
11414;SDS011;5763;42.714;23.244;2023-11-21T04:24:11;1.40;;;1.00;;
11414;SDS011;5763;42.714;23.244;2023-11-21T04:26:38;1.63;;;1.30;;
11414;SDS011;5763;42.714;23.244;2023-11-21T04:29:04;2.50;;;1.55;;
11414;SDS011;5763;42.714;23.244;2023-11-21T04:31:31;1.27;;;1.17;;
11414;SDS011;5763;42.714;23.244;2023-11-21T04:33:58;4.10;;;1.35;;
11414;SDS011;5763;42.714;23.244;2023-11-21T04:36:25;2.22;;;2.03;;
11414;SDS011;5763;42.714;23.244;2023-11-21T04:38:52;6.78;;;2.33;;
11414;SDS011;5763;42.714;23.244;2023-11-21T04:41:20;2.85;;;2.33;;
11414;SDS011;5763;42.714;23.244;2023-11-21T04:43:47;1.80;;;1.67;;
11414;SDS011;5763;42.714;23.244;2023-11-21T04:46:31;1.98;;;1.45;;
11414;SDS011;5763;42.714;23.244;2023-11-21T04:48:58;3.33;;;1.88;;
11414;SDS011;5763;42.714;23.244;2023-11-21T04:51:25;2.88;;;1.85;;
11414;SDS011;5763;42.714;23.244;2023-11-21T04:53:53;2.03;;;1.83;;
11414;SDS011;5763;42.714;23.244;2023-11-21T04:56:21;2.90;;;1.92;;
11414;SDS011;5763;42.714;23.244;2023-11-21T04:58:48;4.18;;;1.65;;
11414;SDS011;5763;42.714;23.244;2023-11-21T05:01:15;4.03;;;2.10;;
11414;SDS011;5763;42.714;23.244;2023-11-21T05:03:42;2.15;;;1.92;;
11414;SDS011;5763;42.714;23.244;2023-11-21T05:06:09;4.57;;;2.35;;
11414;SDS011;5763;42.714;23.244;2023-11-21T05:08:37;2.78;;;2.00;;
11414;SDS011;5763;42.714;23.244;2023-11-21T05:11:04;3.97;;;1.92;;
11414;SDS011;5763;42.714;23.244;2023-11-21T05:13:34;3.88;;;2.75;;
11414;SDS011;5763;42.714;23.244;2023-11-21T05:16:01;3.92;;;1.80;;
11414;SDS011;5763;42.714;23.244;2023-11-21T05:18:32;3.78;;;2.40;;
11414;SDS011;5763;42.714;23.244;2023-11-21T05:20:59;2.75;;;2.13;;
11414;SDS011;5763;42.714;23.244;2023-11-21T05:23:27;4.32;;;2.50;;
11414;SDS011;5763;42.714;23.244;2023-11-21T05:25:53;4.75;;;2.67;;
11414;SDS011;5763;42.714;23.244;2023-11-21T05:28:21;2.63;;;2.42;;
11414;SDS011;5763;42.714;23.244;2023-11-21T05:30:49;4.28;;;1.75;;
11414;SDS011;5763;42.714;23.244;2023-11-21T05:33:16;3.03;;;1.85;;
11414;SDS011;5763;42.714;23.244;2023-11-21T05:35:43;2.38;;;1.70;;
11414;SDS011;5763;42.714;23.244;2023-11-21T05:38:11;1.77;;;1.67;;
11414;SDS011;5763;42.714;23.244;2023-11-21T05:40:38;5.43;;;2.85;;
11414;SDS011;5763;42.714;23.244;2023-11-21T05:43:06;6.32;;;2.55;;
11414;SDS011;5763;42.714;23.244;2023-11-21T05:45:33;12.50;;;2.58;;
11414;SDS011;5763;42.714;23.244;2023-11-21T05:48:01;2.40;;;2.17;;
11414;SDS011;5763;42.714;23.244;2023-11-21T05:50:29;3.42;;;1.77;;
11414;SDS011;5763;42.714;23.244;2023-11-21T05:52:56;2.50;;;1.92;;
11414;SDS011;5763;42.714;23.244;2023-11-21T05:55:25;4.03;;;2.45;;
11414;SDS011;5763;42.714;23.244;2023-11-21T05:57:52;3.45;;;2.90;;
11414;SDS011;5763;42.714;23.244;2023-11-21T06:00:19;2.97;;;2.05;;
11414;SDS011;5763;42.714;23.244;2023-11-21T06:02:47;6.57;;;2.13;;
11414;SDS011;5763;42.714;23.244;2023-11-21T06:05:17;4.13;;;3.13;;
11414;SDS011;5763;42.714;23.244;2023-11-21T06:07:44;9.07;;;3.95;;
11414;SDS011;5763;42.714;23.244;2023-11-21T06:10:11;8.30;;;2.35;;
11414;SDS011;5763;42.714;23.244;2023-11-21T06:12:39;3.78;;;2.20;;
11414;SDS011;5763;42.714;23.244;2023-11-21T06:15:08;3.58;;;2.40;;
11414;SDS011;5763;42.714;23.244;2023-11-21T06:17:38;4.50;;;2.55;;
11414;SDS011;5763;42.714;23.244;2023-11-21T06:20:06;2.83;;;2.42;;
11414;SDS011;5763;42.714;23.244;2023-11-21T06:22:36;4.50;;;2.17;;
11414;SDS011;5763;42.714;23.244;2023-11-21T06:25:04;5.05;;;2.67;;
11414;SDS011;5763;42.714;23.244;2023-11-21T06:27:32;3.63;;;2.28;;
11414;SDS011;5763;42.714;23.244;2023-11-21T06:29:59;4.80;;;3.13;;
11414;SDS011;5763;42.714;23.244;2023-11-21T06:32:26;3.67;;;2.80;;
11414;SDS011;5763;42.714;23.244;2023-11-21T06:34:54;8.48;;;3.33;;
11414;SDS011;5763;42.714;23.244;2023-11-21T06:37:24;4.88;;;3.38;;
11414;SDS011;5763;42.714;23.244;2023-11-21T06:39:53;6.75;;;3.42;;
11414;SDS011;5763;42.714;23.244;2023-11-21T06:42:20;3.78;;;3.38;;
11414;SDS011;5763;42.714;23.244;2023-11-21T06:44:47;4.18;;;3.72;;
11414;SDS011;5763;42.714;23.244;2023-11-21T06:47:16;4.07;;;2.88;;
11414;SDS011;5763;42.714;23.244;2023-11-21T06:49:45;3.70;;;2.85;;
11414;SDS011;5763;42.714;23.244;2023-11-21T06:52:13;4.97;;;3.45;;
11414;SDS011;5763;42.714;23.244;2023-11-21T06:54:40;3.17;;;2.90;;
11414;SDS011;5763;42.714;23.244;2023-11-21T06:57:09;4.45;;;3.40;;
11414;SDS011;5763;42.714;23.244;2023-11-21T06:59:35;4.15;;;3.70;;
11414;SDS011;5763;42.714;23.244;2023-11-21T07:02:02;5.20;;;3.95;;
11414;SDS011;5763;42.714;23.244;2023-11-21T07:04:31;3.95;;;3.35;;
11414;SDS011;5763;42.714;23.244;2023-11-21T07:06:58;6.57;;;3.38;;
11414;SDS011;5763;42.714;23.244;2023-11-21T07:09:25;5.65;;;3.90;;
11414;SDS011;5763;42.714;23.244;2023-11-21T07:11:52;6.80;;;2.92;;
11414;SDS011;5763;42.714;23.244;2023-11-21T07:14:21;5.03;;;3.05;;
11414;SDS011;5763;42.714;23.244;2023-11-21T07:16:48;3.72;;;3.20;;
11414;SDS011;5763;42.714;23.244;2023-11-21T07:19:16;4.88;;;3.03;;
11414;SDS011;5763;42.714;23.244;2023-11-21T07:21:43;7.30;;;4.03;;
11414;SDS011;5763;42.714;23.244;2023-11-21T07:24:10;8.27;;;3.60;;
11414;SDS011;5763;42.714;23.244;2023-11-21T07:26:37;3.97;;;3.63;;
11414;SDS011;5763;42.714;23.244;2023-11-21T07:29:04;6.57;;;4.35;;
11414;SDS011;5763;42.714;23.244;2023-11-21T07:31:32;4.88;;;3.63;;
11414;SDS011;5763;42.714;23.244;2023-11-21T07:34:00;4.82;;;3.30;;
11414;SDS011;5763;42.714;23.244;2023-11-21T07:36:27;6.95;;;3.67;;
11414;SDS011;5763;42.714;23.244;2023-11-21T07:38:54;5.80;;;3.85;;
11414;SDS011;5763;42.714;23.244;2023-11-21T07:41:21;3.25;;;2.63;;
11414;SDS011;5763;42.714;23.244;2023-11-21T07:43:48;3.97;;;2.75;;
11414;SDS011;5763;42.714;23.244;2023-11-21T07:46:14;5.07;;;2.72;;
11414;SDS011;5763;42.714;23.244;2023-11-21T07:48:43;5.55;;;3.35;;
11414;SDS011;5763;42.714;23.244;2023-11-21T07:51:11;4.35;;;3.17;;
11414;SDS011;5763;42.714;23.244;2023-11-21T07:53:38;4.38;;;3.03;;
11414;SDS011;5763;42.714;23.244;2023-11-21T07:56:06;4.63;;;3.63;;
11414;SDS011;5763;42.714;23.244;2023-11-21T07:58:35;8.38;;;4.35;;
11414;SDS011;5763;42.714;23.244;2023-11-21T08:01:02;8.55;;;3.63;;
11414;SDS011;5763;42.714;23.244;2023-11-21T08:03:29;4.43;;;3.97;;
11414;SDS011;5763;42.714;23.244;2023-11-21T08:05:58;4.88;;;3.63;;
11414;SDS011;5763;42.714;23.244;2023-11-21T08:08:25;6.75;;;4.13;;
11414;SDS011;5763;42.714;23.244;2023-11-21T08:10:52;6.40;;;3.85;;
11414;SDS011;5763;42.714;23.244;2023-11-21T08:13:22;4.13;;;2.67;;
11414;SDS011;5763;42.714;23.244;2023-11-21T08:15:49;4.93;;;3.67;;
11414;SDS011;5763;42.714;23.244;2023-11-21T08:18:17;3.40;;;2.83;;
11414;SDS011;5763;42.714;23.244;2023-11-21T08:20:44;4.28;;;3.47;;
11414;SDS011;5763;42.714;23.244;2023-11-21T08:23:14;5.15;;;3.15;;
11414;SDS011;5763;42.714;23.244;2023-11-21T08:25:42;6.75;;;3.83;;
11414;SDS011;5763;42.714;23.244;2023-11-21T08:28:09;10.18;;;4.22;;
11414;SDS011;5763;42.714;23.244;2023-11-21T08:30:37;5.88;;;4.07;;
11414;SDS011;5763;42.714;23.244;2023-11-21T08:33:04;5.75;;;3.83;;
11414;SDS011;5763;42.714;23.244;2023-11-21T08:35:32;3.92;;;3.53;;
11414;SDS011;5763;42.714;23.244;2023-11-21T08:37:58;9.05;;;4.50;;
11414;SDS011;5763;42.714;23.244;2023-11-21T08:40:27;6.05;;;3.90;;
11414;SDS011;5763;42.714;23.244;2023-11-21T08:42:54;9.32;;;4.43;;
11414;SDS011;5763;42.714;23.244;2023-11-21T08:45:21;5.78;;;3.85;;
11414;SDS011;5763;42.714;23.244;2023-11-21T08:47:48;5.97;;;3.95;;
11414;SDS011;5763;42.714;23.244;2023-11-21T08:50:15;5.38;;;4.43;;
11414;SDS011;5763;42.714;23.244;2023-11-21T08:52:42;4.40;;;3.80;;
11414;SDS011;5763;42.714;23.244;2023-11-21T08:55:11;6.07;;;5.05;;
11414;SDS011;5763;42.714;23.244;2023-11-21T08:57:40;6.03;;;4.95;;
11414;SDS011;5763;42.714;23.244;2023-11-21T09:00:11;6.70;;;3.92;;
11414;SDS011;5763;42.714;23.244;2023-11-21T09:02:38;7.40;;;3.63;;
11414;SDS011;5763;42.714;23.244;2023-11-21T09:05:07;4.93;;;4.40;;
11414;SDS011;5763;42.714;23.244;2023-11-21T09:07:34;7.97;;;4.50;;
11414;SDS011;5763;42.714;23.244;2023-11-21T09:10:01;6.88;;;4.78;;
11414;SDS011;5763;42.714;23.244;2023-11-21T09:12:28;5.80;;;3.85;;
11414;SDS011;5763;42.714;23.244;2023-11-21T09:14:59;5.45;;;4.95;;
11414;SDS011;5763;42.714;23.244;2023-11-21T09:17:25;5.15;;;3.63;;
11414;SDS011;5763;42.714;23.244;2023-11-21T09:19:52;3.53;;;3.03;;
11414;SDS011;5763;42.714;23.244;2023-11-21T09:22:19;4.28;;;3.58;;
11414;SDS011;5763;42.714;23.244;2023-11-21T09:24:46;4.35;;;3.38;;
11414;SDS011;5763;42.714;23.244;2023-11-21T09:27:13;6.18;;;3.33;;
11414;SDS011;5763;42.714;23.244;2023-11-21T09:29:40;5.95;;;3.60;;
11414;SDS011;5763;42.714;23.244;2023-11-21T09:32:09;6.25;;;3.60;;
11414;SDS011;5763;42.714;23.244;2023-11-21T09:34:39;6.25;;;3.90;;
11414;SDS011;5763;42.714;23.244;2023-11-21T09:37:07;5.25;;;3.63;;
11414;SDS011;5763;42.714;23.244;2023-11-21T09:39:34;3.80;;;2.78;;
11414;SDS011;5763;42.714;23.244;2023-11-21T09:42:04;5.47;;;3.13;;
11414;SDS011;5763;42.714;23.244;2023-11-21T09:44:36;4.63;;;3.67;;
11414;SDS011;5763;42.714;23.244;2023-11-21T09:47:15;5.22;;;3.58;;
11414;SDS011;5763;42.714;23.244;2023-11-21T09:49:42;5.35;;;3.42;;
11414;SDS011;5763;42.714;23.244;2023-11-21T09:52:12;5.85;;;3.88;;
11414;SDS011;5763;42.714;23.244;2023-11-21T09:54:44;6.65;;;4.90;;
11414;SDS011;5763;42.714;23.244;2023-11-21T09:57:12;8.68;;;5.50;;
11414;SDS011;5763;42.714;23.244;2023-11-21T09:59:40;7.55;;;4.55;;
11414;SDS011;5763;42.714;23.244;2023-11-21T10:02:09;8.57;;;5.25;;
11414;SDS011;5763;42.714;23.244;2023-11-21T10:04:40;10.35;;;4.72;;
11414;SDS011;5763;42.714;23.244;2023-11-21T10:07:07;9.00;;;5.10;;
11414;SDS011;5763;42.714;23.244;2023-11-21T10:09:35;8.07;;;5.75;;
11414;SDS011;5763;42.714;23.244;2023-11-21T10:12:04;7.28;;;5.45;;
11414;SDS011;5763;42.714;23.244;2023-11-21T10:14:34;7.35;;;5.80;;
11414;SDS011;5763;42.714;23.244;2023-11-21T10:17:03;10.35;;;6.00;;
11414;SDS011;5763;42.714;23.244;2023-11-21T10:19:33;14.15;;;6.15;;
11414;SDS011;5763;42.714;23.244;2023-11-21T10:22:04;9.77;;;6.13;;
11414;SDS011;5763;42.714;23.244;2023-11-21T10:24:32;8.38;;;6.35;;
11414;SDS011;5763;42.714;23.244;2023-11-21T10:26:58;7.53;;;5.90;;
11414;SDS011;5763;42.714;23.244;2023-11-21T10:29:28;10.85;;;6.53;;
11414;SDS011;5763;42.714;23.244;2023-11-21T10:31:55;7.57;;;5.15;;
11414;SDS011;5763;42.714;23.244;2023-11-21T10:34:24;7.25;;;5.50;;
11414;SDS011;5763;42.714;23.244;2023-11-21T10:36:52;8.18;;;6.50;;
11414;SDS011;5763;42.714;23.244;2023-11-21T10:39:24;8.55;;;6.05;;
11414;SDS011;5763;42.714;23.244;2023-11-21T10:41:56;5.78;;;4.60;;
11414;SDS011;5763;42.714;23.244;2023-11-21T10:44:22;7.72;;;5.82;;
11414;SDS011;5763;42.714;23.244;2023-11-21T10:46:50;8.75;;;5.70;;
11414;SDS011;5763;42.714;23.244;2023-11-21T10:49:21;7.40;;;5.55;;
11414;SDS011;5763;42.714;23.244;2023-11-21T10:51:50;9.82;;;5.65;;
11414;SDS011;5763;42.714;23.244;2023-11-21T10:54:18;8.23;;;4.68;;
11414;SDS011;5763;42.714;23.244;2023-11-21T10:56:48;6.40;;;5.18;;
11414;SDS011;5763;42.714;23.244;2023-11-21T10:59:17;6.07;;;4.07;;
11414;SDS011;5763;42.714;23.244;2023-11-21T11:01:46;9.75;;;5.68;;
11414;SDS011;5763;42.714;23.244;2023-11-21T11:04:15;7.78;;;4.82;;
11414;SDS011;5763;42.714;23.244;2023-11-21T11:06:44;7.25;;;5.65;;
11414;SDS011;5763;42.714;23.244;2023-11-21T11:09:12;6.35;;;5.15;;
11414;SDS011;5763;42.714;23.244;2023-11-21T11:11:41;12.70;;;5.03;;
11414;SDS011;5763;42.714;23.244;2023-11-21T11:14:11;8.00;;;5.10;;
11414;SDS011;5763;42.714;23.244;2023-11-21T11:16:39;6.93;;;5.25;;
11414;SDS011;5763;42.714;23.244;2023-11-21T11:19:08;6.72;;;5.60;;
11414;SDS011;5763;42.714;23.244;2023-11-21T11:21:39;6.07;;;4.10;;
11414;SDS011;5763;42.714;23.244;2023-11-21T11:27:18;5.45;;;4.43;;
11414;SDS011;5763;42.714;23.244;2023-11-21T11:29:59;8.00;;;5.03;;
11414;SDS011;5763;42.714;23.244;2023-11-21T11:32:38;4.78;;;3.80;;
11414;SDS011;5763;42.714;23.244;2023-11-21T11:35:16;8.02;;;4.85;;
11414;SDS011;5763;42.714;23.244;2023-11-21T11:37:51;4.20;;;3.80;;
11414;SDS011;5763;42.714;23.244;2023-11-21T11:40:18;5.75;;;4.82;;
11414;SDS011;5763;42.714;23.244;2023-11-21T11:42:55;5.10;;;3.65;;
11414;SDS011;5763;42.714;23.244;2023-11-21T11:45:26;5.72;;;3.63;;
11414;SDS011;5763;42.714;23.244;2023-11-21T11:47:59;6.32;;;4.20;;
11414;SDS011;5763;42.714;23.244;2023-11-21T11:50:27;5.53;;;4.00;;
11414;SDS011;5763;42.714;23.244;2023-11-21T11:52:55;7.57;;;5.57;;
11414;SDS011;5763;42.714;23.244;2023-11-21T11:55:37;5.30;;;4.75;;
11414;SDS011;5763;42.714;23.244;2023-11-21T11:58:05;5.07;;;4.15;;
11414;SDS011;5763;42.714;23.244;2023-11-21T12:00:35;5.63;;;4.88;;
11414;SDS011;5763;42.714;23.244;2023-11-21T12:03:05;6.97;;;4.85;;
11414;SDS011;5763;42.714;23.244;2023-11-21T12:05:35;7.22;;;4.63;;
11414;SDS011;5763;42.714;23.244;2023-11-21T12:08:04;3.97;;;3.60;;
11414;SDS011;5763;42.714;23.244;2023-11-21T12:10:33;5.28;;;3.25;;
11414;SDS011;5763;42.714;23.244;2023-11-21T12:13:01;6.97;;;4.93;;
11414;SDS011;5763;42.714;23.244;2023-11-21T12:15:30;4.13;;;2.92;;
11414;SDS011;5763;42.714;23.244;2023-11-21T12:17:58;5.72;;;3.80;;
11414;SDS011;5763;42.714;23.244;2023-11-21T12:20:26;5.30;;;3.83;;
11414;SDS011;5763;42.714;23.244;2023-11-21T12:22:53;4.05;;;3.17;;
11414;SDS011;5763;42.714;23.244;2023-11-21T12:25:21;7.05;;;3.47;;
11414;SDS011;5763;42.714;23.244;2023-11-21T12:27:49;4.82;;;3.17;;
11414;SDS011;5763;42.714;23.244;2023-11-21T12:30:17;4.43;;;2.65;;
11414;SDS011;5763;42.714;23.244;2023-11-21T12:32:45;3.30;;;3.00;;
11414;SDS011;5763;42.714;23.244;2023-11-21T12:35:15;4.95;;;3.22;;
11414;SDS011;5763;42.714;23.244;2023-11-21T12:37:44;4.65;;;2.95;;
11414;SDS011;5763;42.714;23.244;2023-11-21T12:40:12;3.65;;;3.08;;
11414;SDS011;5763;42.714;23.244;2023-11-21T12:42:40;4.53;;;2.20;;
11414;SDS011;5763;42.714;23.244;2023-11-21T12:45:09;3.53;;;2.58;;
11414;SDS011;5763;42.714;23.244;2023-11-21T12:47:45;3.80;;;2.90;;
11414;SDS011;5763;42.714;23.244;2023-11-21T12:50:14;2.55;;;2.35;;
11414;SDS011;5763;42.714;23.244;2023-11-21T12:52:42;5.63;;;3.28;;
11414;SDS011;5763;42.714;23.244;2023-11-21T12:55:14;3.70;;;2.33;;
11414;SDS011;5763;42.714;23.244;2023-11-21T12:57:42;4.63;;;2.90;;
11414;SDS011;5763;42.714;23.244;2023-11-21T13:00:11;6.32;;;3.03;;
11414;SDS011;5763;42.714;23.244;2023-11-21T13:02:51;3.70;;;2.63;;
11414;SDS011;5763;42.714;23.244;2023-11-21T13:05:27;3.35;;;1.98;;
11414;SDS011;5763;42.714;23.244;2023-11-21T13:07:55;3.97;;;2.67;;
11414;SDS011;5763;42.714;23.244;2023-11-21T13:10:24;3.03;;;2.50;;
11414;SDS011;5763;42.714;23.244;2023-11-21T13:12:52;3.50;;;2.60;;
11414;SDS011;5763;42.714;23.244;2023-11-21T13:15:20;2.00;;;1.73;;
11414;SDS011;5763;42.714;23.244;2023-11-21T13:17:47;2.85;;;2.25;;
11414;SDS011;5763;42.714;23.244;2023-11-21T13:20:15;2.58;;;1.90;;
11414;SDS011;5763;42.714;23.244;2023-11-21T13:22:47;2.45;;;1.90;;
11414;SDS011;5763;42.714;23.244;2023-11-21T13:25:15;2.40;;;2.08;;
11414;SDS011;5763;42.714;23.244;2023-11-21T13:27:44;2.63;;;1.77;;
11414;SDS011;5763;42.714;23.244;2023-11-21T13:30:12;5.68;;;2.88;;
11414;SDS011;5763;42.714;23.244;2023-11-21T13:32:48;5.40;;;4.10;;
11414;SDS011;5763;42.714;23.244;2023-11-21T13:35:16;3.83;;;3.08;;
11414;SDS011;5763;42.714;23.244;2023-11-21T13:37:50;5.65;;;3.63;;
11414;SDS011;5763;42.714;23.244;2023-11-21T13:40:21;4.38;;;3.25;;
11414;SDS011;5763;42.714;23.244;2023-11-21T13:42:51;4.32;;;2.78;;
11414;SDS011;5763;42.714;23.244;2023-11-21T13:45:20;6.88;;;3.53;;
11414;SDS011;5763;42.714;23.244;2023-11-21T13:47:49;4.13;;;3.70;;
11414;SDS011;5763;42.714;23.244;2023-11-21T13:50:23;3.80;;;2.67;;
11414;SDS011;5763;42.714;23.244;2023-11-21T13:52:55;4.00;;;3.60;;
11414;SDS011;5763;42.714;23.244;2023-11-21T13:55:23;3.72;;;3.13;;
11414;SDS011;5763;42.714;23.244;2023-11-21T13:57:51;3.97;;;2.70;;
11414;SDS011;5763;42.714;23.244;2023-11-21T14:00:18;5.45;;;2.83;;
11414;SDS011;5763;42.714;23.244;2023-11-21T14:03:09;4.28;;;3.10;;
11414;SDS011;5763;42.714;23.244;2023-11-21T14:05:44;6.13;;;3.28;;
11414;SDS011;5763;42.714;23.244;2023-11-21T14:08:13;7.78;;;5.53;;
11414;SDS011;5763;42.714;23.244;2023-11-21T14:10:45;6.32;;;4.30;;
11414;SDS011;5763;42.714;23.244;2023-11-21T14:13:16;7.53;;;4.13;;
11414;SDS011;5763;42.714;23.244;2023-11-21T14:15:43;6.32;;;4.07;;
11414;SDS011;5763;42.714;23.244;2023-11-21T14:18:11;5.85;;;3.92;;
11414;SDS011;5763;42.714;23.244;2023-11-21T14:20:42;7.68;;;4.18;;
11414;SDS011;5763;42.714;23.244;2023-11-21T14:23:09;6.68;;;3.65;;
11414;SDS011;5763;42.714;23.244;2023-11-21T14:25:38;6.40;;;3.33;;
11414;SDS011;5763;42.714;23.244;2023-11-21T14:28:07;5.85;;;4.15;;
11414;SDS011;5763;42.714;23.244;2023-11-21T14:30:36;4.50;;;3.13;;
11414;SDS011;5763;42.714;23.244;2023-11-21T14:33:05;4.88;;;3.53;;
11414;SDS011;5763;42.714;23.244;2023-11-21T14:35:33;6.88;;;3.88;;
11414;SDS011;5763;42.714;23.244;2023-11-21T14:38:00;6.43;;;3.88;;
11414;SDS011;5763;42.714;23.244;2023-11-21T14:40:29;4.53;;;3.33;;
11414;SDS011;5763;42.714;23.244;2023-11-21T14:43:00;4.03;;;3.38;;
11414;SDS011;5763;42.714;23.244;2023-11-21T14:45:27;9.00;;;4.65;;
11414;SDS011;5763;42.714;23.244;2023-11-21T14:47:55;6.25;;;4.18;;
11414;SDS011;5763;42.714;23.244;2023-11-21T14:50:31;5.00;;;4.13;;
11414;SDS011;5763;42.714;23.244;2023-11-21T14:53:14;4.30;;;3.90;;
11414;SDS011;5763;42.714;23.244;2023-11-21T14:55:40;5.80;;;3.53;;
11414;SDS011;5763;42.714;23.244;2023-11-21T14:58:22;5.28;;;3.42;;